Springdale, AR (72764)

1:45 AM CDT on August 24, 2016 (GMT -0500)
Springdale Airport Rain | | Change Station

Elev 1339 ft 36.18 °N, 94.12 °W | Updated 4 minutes ago

Clear
Clear
77.9 °F
Feels Like 80 °F
N
0.0
Wind Variable Wind from North
Gusts 0.0 mph

Today
High -- | Low -- °F
--% Chance of Precip.
Yesterday
High -- | Low -- °F
Precip. -- in
Pressure 30.04 in
Visibility 10.0 miles
Clouds Clear
Heat Index 80 °F
Dew Point 72 °F
Humidity 83%
Rainfall 0.00 in
Snow Depth Not available.
6:42 AM 7:54 PM
Waning Gibbous, 60% visible
METAR KFYV 240553Z 18009KT 10SM CLR 24/22 A3009 RMK AO2 SLP173 T02390217 10278 20239 402940211 50001
Pressure 30.04 in
Visibility 10.0 miles
Clouds Clear
Heat Index 80 °F
Dew Point 72 °F
Humidity 83%
Rainfall 0.00 in
Snow Depth Not available.
6:42 AM 7:54 PM
Waning Gibbous, 60% visible
METAR KFYV 240553Z 18009KT 10SM CLR 24/22 A3009 RMK AO2 SLP173 T02390217 10278 20239 402940211 50001

10-Day Weather Forecast

Almanac

Astronomy

Aug. 24, 2016 Rise Set
Actual Time
Civil Twilight
Nautical Twilight
Astronomical Twilight
Moon
Length of Visible Light
Length of Day
Tomorrow will be .
, % of the Moon is Illuminated

Today's Extremes

State Highs State Lows

Community

WunderPhotos

Upload Photos

1,934,555 photos uploaded!

WunderBlog® & News

Nearby

Air Quality

  Air Quality AQ Index Pollutant
Not available.

Snow Depth

Station Depth Elevation

Earthquake Activity

City Distance Mag. Time & Date
Minimum magnitude displayed is 2.5.

Coastal Water Temperatures

Place Temperature

Stations

Nearby Weather Stations

Station Location Temp. Windchill Dew Point Humidity Wind Precip. Elev Updated Type
                   

Watches & Warnings

There are currently no watches in effect.